Language: 


Des rapports , des résumés tant et plus, au choix de chacun....


Données Historiques de Météogheer
Journalier Rapport pour Janvier 7, 2017 Unitée:  Les deux    Impériale   Métrique
Suivant Jour »
Journalier Hebdomadaire Mensuel Annuel Sur mesure
  Max: Min: Moyenne:
Température: 39.2 °F /  4.0 °C 31.3 °F /  -0.4 °C 35.6 °F /  2 °C
Point de rosée: 38.7 °F /  3.7 °C 26.1 °F /  -3.3 °C 34.3 °F /  1.3 °C
Humidité: 98% 0% 95%
Vent: 8.7mph /  14.0km/h - 2.6mph /  4.2km/h
Rafales: 19.9mph /  32.0km/h - -
Vent- - SSW
Pression: 32.1 in /  1087.9 hPa 0 in /  0.0 hPa -
Pluie: 0 in /  0.0 mm    
Historical Graphs
 
 
Données tabulaires pour Janvier 7, 2017
Heure Température Point de rosée Pression Vent Vent Rafales Humidité Pluie Taux (Horaire) Conditions
00:00 31.3 °F /  -0.4 °C 26.1 °F /  -3.3 °C 30.5in /  1034.1hPa WSW 8.5mph /  13.7km/h 19.9mph /  32.0km/h 81% 0in /  0.0mm
00:10 31.3 °F /  -0.4 °C 26.1 °F /  -3.3 °C 32.1in /  1087.9hPa SSW 4.5mph /  7.2km/h 8.7mph /  14.0km/h 81% 0in /  0.0mm
00:20 31.3 °F /  -0.4 °C 26.1 °F /  -3.3 °C 30.5in /  1034.1hPa SW 7.2mph /  11.6km/h 8.7mph /  14.0km/h 81% 0in /  0.0mm
00:30 31.3 °F /  -0.4 °C 26.1 °F /  -3.3 °C 30.6in /  1035.1hPa SSW 3.8mph /  6.1km/h 19.5mph /  31.4km/h 81% 0in /  0.0mm
00:40 31.3 °F /  -0.4 °C 26.1 °F /  -3.3 °C 30.6in /  1035.1hPa South 5.8mph /  9.3km/h 6.5mph /  10.5km/h 81% 0in /  0.0mm
00:50 31.3 °F /  -0.4 °C 26.1 °F /  -3.3 °C 30.6in /  1035.1hPa South 4.9mph /  7.9km/h 6.5mph /  10.5km/h 81% 0in /  0.0mm
01:00 31.3 °F /  -0.4 °C 26.1 °F /  -3.3 °C 30.6in /  1035.1hPa SSW 4mph /  6.4km/h 7.4mph /  11.9km/h 81% 0in /  0.0mm
01:10 31.3 °F /  -0.4 °C 26.1 °F /  -3.3 °C 30.6in /  1035.1hPa SSW 3.1mph /  5.0km/h 5.8mph /  9.3km/h 81% 0in /  0.0mm
01:20 31.3 °F /  -0.4 °C 26.1 °F /  -3.3 °C 30.6in /  1035.1hPa South 2.7mph /  4.3km/h 7.4mph /  11.9km/h 81% 0in /  0.0mm
01:30 31.3 °F /  -0.4 °C 26.1 °F /  -3.3 °C 30.6in /  1035.1hPa South 4.9mph /  7.9km/h 6.3mph /  10.1km/h 81% 0in /  0.0mm
01:40 31.3 °F /  -0.4 °C 26.1 °F /  -3.3 °C 30.5in /  1034.1hPa South 6mph /  9.7km/h 7.4mph /  11.9km/h 81% 0in /  0.0mm
01:50 31.3 °F /  -0.4 °C 26.1 °F /  -3.3 °C 30.5in /  1034.1hPa SSW 4.3mph /  6.9km/h 7.8mph /  12.6km/h 81% 0in /  0.0mm
02:00 31.3 °F /  -0.4 °C 26.1 °F /  -3.3 °C 30.5in /  1034.1hPa SSW 3.1mph /  5.0km/h 7.8mph /  12.6km/h 81% 0in /  0.0mm
09:00 33.3 °F /  0.7 °C 29.5 °F /  -1.4 °C 30.4in /  1031.0hPa South 3.1mph /  5.0km/h 6.5mph /  10.5km/h 86% 0in /  0.0mm
09:10 33.3 °F /  0.7 °C 29.5 °F /  -1.4 °C 30.4in /  1031.0hPa South 3.8mph /  6.1km/h 9.6mph /  15.4km/h 86% 0in /  0.0mm
09:14 33.3 °F /  0.7 °C 29.5 °F /  -1.4 °C 30.4in /  1031.0hPa SSW 4.9mph /  7.9km/h 9.6mph /  15.4km/h 86% 0in /  0.0mm
09:20 33.3 °F /  0.7 °C 29.8 °F /  -1.2 °C 30.4in /  1031.0hPa SW 5.6mph /  9.0km/h 8.7mph /  14.0km/h 87% 0in /  0.0mm
09:24 33.3 °F /  0.7 °C 29.8 °F /  -1.2 °C 30.4in /  1031.0hPa SSW 5.4mph /  8.7km/h 8.5mph /  13.7km/h 87% 0in /  0.0mm
09:30 33.4 °F /  0.8 °C 30 °F /  -1.1 °C 30.4in /  1031.0hPa South 2.9mph /  4.7km/h 7.4mph /  11.9km/h 87% 0in /  0.0mm
09:34 33.4 °F /  0.8 °C 30.2 °F /  -1.0 °C 30.4in /  1031.0hPa SSW 5.6mph /  9.0km/h 7.4mph /  11.9km/h 88% 0in /  0.0mm
09:40 33.6 °F /  0.9 °C 30.4 °F /  -0.9 °C 30.4in /  1031.0hPa WSW 4mph /  6.4km/h 7.2mph /  11.6km/h 88% 0in /  0.0mm
09:45 33.6 °F /  0.9 °C 30.7 °F /  -0.7 °C 30.4in /  1031.0hPa SSW 4.9mph /  7.9km/h 6.7mph /  10.8km/h 89% 0in /  0.0mm
09:50 33.6 °F /  0.9 °C 30.7 °F /  -0.7 °C 30.4in /  1031.0hPa SSW 4mph /  6.4km/h 7.6mph /  12.2km/h 89% 0in /  0.0mm
09:55 33.6 °F /  0.9 °C 30.7 °F /  -0.7 °C 30.4in /  1031.0hPa SSW 3.8mph /  6.1km/h 7.6mph /  12.2km/h 89% 0in /  0.0mm
10:00 33.6 °F /  0.9 °C 30.7 °F /  -0.7 °C 30.4in /  1031.0hPa SSW 6.3mph /  10.1km/h 7.2mph /  11.6km/h 89% 0in /  0.0mm
10:05 33.6 °F /  0.9 °C 30.9 °F /  -0.6 °C 30.4in /  1031.0hPa WSW 5.6mph /  9.0km/h 8.9mph /  14.3km/h 90% 0in /  0.0mm
10:10 33.8 °F /  1.0 °C 31.1 °F /  -0.5 °C 30.4in /  1031.0hPa SSW 7.4mph /  11.9km/h 8.9mph /  14.3km/h 90% 0in /  0.0mm
10:15 33.8 °F /  1.0 °C 31.1 °F /  -0.5 °C 30.4in /  1031.0hPa SW 4.3mph /  6.9km/h 8.5mph /  13.7km/h 90% 0in /  0.0mm
10:20 33.8 °F /  1.0 °C 31.1 °F /  -0.5 °C 30.4in /  1031.0hPa South 3.6mph /  5.8km/h 7.8mph /  12.6km/h 90% 0in /  0.0mm
10:25 33.8 °F /  1.0 °C 31.5 °F /  -0.3 °C 30.4in /  1031.0hPa SSW 4.3mph /  6.9km/h 7.4mph /  11.9km/h 91% 0in /  0.0mm
10:30 33.8 °F /  1.0 °C 31.5 °F /  -0.3 °C 30.4in /  1031.0hPa South 8.5mph /  13.7km/h 8.5mph /  13.7km/h 91% 0in /  0.0mm
10:35 33.6 °F /  0.9 °C 31.5 °F /  -0.3 °C 30.4in /  1031.0hPa SSW 4mph /  6.4km/h 9.6mph /  15.4km/h 92% 0in /  0.0mm
10:40 33.6 °F /  0.9 °C 31.5 °F /  -0.3 °C 30.4in /  1031.0hPa South 5.4mph /  8.7km/h 9.6mph /  15.4km/h 92% 0in /  0.0mm
10:45 33.6 °F /  0.9 °C 31.5 °F /  -0.3 °C 30.4in /  1031.0hPa South 6mph /  9.7km/h 8.5mph /  13.7km/h 92% 0in /  0.0mm
10:50 33.6 °F /  0.9 °C 31.8 °F /  -0.1 °C 30.4in /  1031.0hPa SSW 6mph /  9.7km/h 10.1mph /  16.3km/h 93% 0in /  0.0mm
10:55 33.6 °F /  0.9 °C 31.8 °F /  -0.1 °C 30.4in /  1031.0hPa South 6mph /  9.7km/h 10.1mph /  16.3km/h 93% 0in /  0.0mm
11:00 33.6 °F /  0.9 °C 31.8 °F /  -0.1 °C 30.4in /  1031.0hPa SSW 4.5mph /  7.2km/h 8.5mph /  13.7km/h 93% 0in /  0.0mm
11:05 33.6 °F /  0.9 °C 31.8 °F /  -0.1 °C 30.4in /  1031.0hPa South 5.4mph /  8.7km/h 8.5mph /  13.7km/h 93% 0in /  0.0mm
11:10 33.6 °F /  0.9 °C 32 °F /  0.0 °C 30.4in /  1030.0hPa South 4.3mph /  6.9km/h 7.8mph /  12.6km/h 94% 0in /  0.0mm
11:15 33.6 °F /  0.9 °C 32 °F /  0.0 °C 30.4in /  1030.0hPa SW 4mph /  6.4km/h 7.6mph /  12.2km/h 94% 0in /  0.0mm
11:20 33.6 °F /  0.9 °C 32 °F /  0.0 °C 30.4in /  1030.0hPa SW 6.3mph /  10.1km/h 7.6mph /  12.2km/h 94% 0in /  0.0mm
11:25 33.6 °F /  0.9 °C 32 °F /  0.0 °C 30.4in /  1031.0hPa SSW 6mph /  9.7km/h 7.6mph /  12.2km/h 94% 0in /  0.0mm
11:30 33.6 °F /  0.9 °C 32 °F /  0.0 °C 30.4in /  1031.0hPa WSW 4.9mph /  7.9km/h 7.8mph /  12.6km/h 94% 0in /  0.0mm
11:35 33.8 °F /  1.0 °C 32.2 °F /  0.1 °C 30.4in /  1031.0hPa SSW 5.6mph /  9.0km/h 7.8mph /  12.6km/h 94% 0in /  0.0mm
11:40 33.8 °F /  1.0 °C 32.5 °F /  0.3 °C 30.4in /  1031.0hPa South 4.3mph /  6.9km/h 7.6mph /  12.2km/h 95% 0in /  0.0mm
11:45 33.8 °F /  1.0 °C 32.5 °F /  0.3 °C 30.4in /  1031.0hPa SSW 5.8mph /  9.3km/h 8.5mph /  13.7km/h 95% 0in /  0.0mm
11:50 34 °F /  1.1 °C 32.7 °F /  0.4 °C 30.4in /  1031.0hPa SSW 4mph /  6.4km/h 8.5mph /  13.7km/h 95% 0in /  0.0mm
11:55 34 °F /  1.1 °C 32.7 °F /  0.4 °C 30.4in /  1031.0hPa SW 8.7mph /  14.0km/h 8.7mph /  14.0km/h 95% 0in /  0.0mm
12:00 34.2 °F /  1.2 °C 33.1 °F /  0.6 °C 30.4in /  1031.0hPa South 4mph /  6.4km/h 8.7mph /  14.0km/h 96% 0in /  0.0mm
12:05 34.2 °F /  1.2 °C 33.1 °F /  0.6 °C 30.4in /  1031.0hPa South 4.3mph /  6.9km/h 7.8mph /  12.6km/h 96% 0in /  0.0mm
12:10 34.3 °F /  1.3 °C 33.3 °F /  0.7 °C 30.4in /  1031.0hPa SSW 4.3mph /  6.9km/h 7.8mph /  12.6km/h 96% 0in /  0.0mm
12:15 34.3 °F /  1.3 °C 33.3 °F /  0.7 °C 30.4in /  1031.0hPa WSW 8.5mph /  13.7km/h 8.7mph /  14.0km/h 96% 0in /  0.0mm
12:20 34.3 °F /  1.3 °C 33.3 °F /  0.7 °C 30.4in /  1031.0hPa SSW 6mph /  9.7km/h 8.7mph /  14.0km/h 96% 0in /  0.0mm
12:25 34.5 °F /  1.4 °C 33.4 °F /  0.8 °C 30.4in /  1031.0hPa SSW 6mph /  9.7km/h 7.2mph /  11.6km/h 96% 0in /  0.0mm
12:30 34.5 °F /  1.4 °C 33.4 °F /  0.8 °C 30.4in /  1031.0hPa SSW 4mph /  6.4km/h 7.2mph /  11.6km/h 96% 0in /  0.0mm
12:35 34.5 °F /  1.4 °C 33.6 °F /  0.9 °C 30.4in /  1031.0hPa WSW 4.9mph /  7.9km/h 7.2mph /  11.6km/h 97% 0in /  0.0mm
12:40 34.5 °F /  1.4 °C 34 °F /  1.1 °C 30.4in /  1031.0hPa SSW 2.9mph /  4.7km/h 7.4mph /  11.9km/h 97% 0in /  0.0mm
12:45 34.5 °F /  1.4 °C 34 °F /  1.1 °C 30.4in /  1031.0hPa SSW 5.4mph /  8.7km/h 7.4mph /  11.9km/h 97% 0in /  0.0mm
12:46 34.5 °F /  1.4 °C 34 °F /  1.1 °C 30.4in /  1031.0hPa SW 4.5mph /  7.2km/h 6.3mph /  10.1km/h 97% 0in /  0.0mm
12:51 34.5 °F /  1.4 °C 34 °F /  1.1 °C 30.4in /  1031.0hPa SSW 4.3mph /  6.9km/h 6.3mph /  10.1km/h 97% 0in /  0.0mm
12:56 34.9 °F /  1.6 °C 34.2 °F /  1.2 °C 30.4in /  1031.0hPa SSW 3.8mph /  6.1km/h 6.5mph /  10.5km/h 97% 0in /  0.0mm
13:01 34.9 °F /  1.6 °C 34.2 °F /  1.2 °C 30.4in /  1031.0hPa SW 5.8mph /  9.3km/h 7.6mph /  12.2km/h 97% 0in /  0.0mm
13:06 35.1 °F /  1.7 °C 34.2 °F /  1.2 °C 30.4in /  1031.0hPa SSW 6mph /  9.7km/h 7.6mph /  12.2km/h 97% 0in /  0.0mm
13:11 35.1 °F /  1.7 °C 34.2 °F /  1.2 °C 30.4in /  1030.0hPa SSW 7.8mph /  12.6km/h 7.8mph /  12.6km/h 97% 0in /  0.0mm
13:16 35.1 °F /  1.7 °C 34.2 °F /  1.2 °C 30.4in /  1030.0hPa SSW 6mph /  9.7km/h 7.8mph /  12.6km/h 97% 0in /  0.0mm
13:21 35.1 °F /  1.7 °C 34.2 °F /  1.2 °C 30.4in /  1030.0hPa SW 4.5mph /  7.2km/h 7.6mph /  12.2km/h 97% 0in /  0.0mm
13:26 35.1 °F /  1.7 °C 34.2 °F /  1.2 °C 30.4in /  1030.0hPa SSW 7.2mph /  11.6km/h 7.4mph /  11.9km/h 97% 0in /  0.0mm
13:31 35.1 °F /  1.7 °C 34.2 °F /  1.2 °C 30.4in /  1030.0hPa South 6.3mph /  10.1km/h 7.2mph /  11.6km/h 97% 0in /  0.0mm
13:36 35.1 °F /  1.7 °C 34.5 °F /  1.4 °C 30.4in /  1030.0hPa WSW 4.3mph /  6.9km/h 6.3mph /  10.1km/h 98% 0in /  0.0mm
13:41 35.1 °F /  1.7 °C 34.5 °F /  1.4 °C 30.4in /  1030.0hPa South 5.6mph /  9.0km/h 6.5mph /  10.5km/h 98% 0in /  0.0mm
13:46 35.2 °F /  1.8 °C 34.7 °F /  1.5 °C 30.4in /  1030.0hPa SSW 4mph /  6.4km/h 6.5mph /  10.5km/h 98% 0in /  0.0mm
13:51 35.2 °F /  1.8 °C 34.7 °F /  1.5 °C 30.4in /  1030.0hPa SW 4.3mph /  6.9km/h 6.5mph /  10.5km/h 98% 0in /  0.0mm
13:56 35.2 °F /  1.8 °C 34.7 °F /  1.5 °C 30.4in /  1030.0hPa WSW 4mph /  6.4km/h 6.5mph /  10.5km/h 98% 0in /  0.0mm
14:01 35.2 °F /  1.8 °C 34.7 °F /  1.5 °C 30.4in /  1030.0hPa SSW 3.1mph /  5.0km/h 5.8mph /  9.3km/h 98% 0in /  0.0mm
14:06 35.4 °F /  1.9 °C 34.9 °F /  1.6 °C 30.4in /  1030.0hPa SSW 3.4mph /  5.5km/h 5.8mph /  9.3km/h 98% 0in /  0.0mm
14:11 35.4 °F /  1.9 °C 34.9 °F /  1.6 °C 30.4in /  1030.0hPa SSW 3.8mph /  6.1km/h 5.6mph /  9.0km/h 98% 0in /  0.0mm
14:16 35.4 °F /  1.9 °C 35.1 °F /  1.7 °C 30.4in /  1030.0hPa SSW 3.8mph /  6.1km/h 5.6mph /  9.0km/h 98% 0in /  0.0mm
14:21 35.4 °F /  1.9 °C 35.1 °F /  1.7 °C 30.4in /  1030.0hPa SW 3.6mph /  5.8km/h 4.7mph /  7.6km/h 98% 0in /  0.0mm
14:26 35.8 °F /  2.1 °C 35.2 °F /  1.8 °C 30.4in /  1030.0hPa SW 3.6mph /  5.8km/h 4.7mph /  7.6km/h 98% 0in /  0.0mm
14:31 36 °F /  2.2 °C 35.4 °F /  1.9 °C 30.4in /  1030.0hPa SSW 3.6mph /  5.8km/h 4.7mph /  7.6km/h 98% 0in /  0.0mm
14:36 36 °F /  2.2 °C 35.4 °F /  1.9 °C 30.4in /  1030.0hPa SW 2.9mph /  4.7km/h 4.7mph /  7.6km/h 98% 0in /  0.0mm
14:41 36.1 °F /  2.3 °C 35.4 °F /  1.9 °C 30.4in /  1030.0hPa SSW 4.9mph /  7.9km/h 5.6mph /  9.0km/h 98% 0in /  0.0mm
14:46 36.1 °F /  2.3 °C 35.4 °F /  1.9 °C 30.4in /  1030.0hPa SSW 2.7mph /  4.3km/h 5.8mph /  9.3km/h 98% 0in /  0.0mm
14:51 36.1 °F /  2.3 °C 35.8 °F /  2.1 °C 30.4in /  1030.0hPa SSW 4mph /  6.4km/h 5.8mph /  9.3km/h 98% 0in /  0.0mm
14:56 36.1 °F /  2.3 °C 35.8 °F /  2.1 °C 30.4in /  1030.0hPa SSW 2.5mph /  4.0km/h 4.3mph /  6.9km/h 98% 0in /  0.0mm
15:01 36.1 °F /  2.3 °C 35.8 °F /  2.1 °C 30.4in /  1030.0hPa South 3.6mph /  5.8km/h 4.3mph /  6.9km/h 98% 0in /  0.0mm
15:06 36.1 °F /  2.3 °C 35.8 °F /  2.1 °C 30.4in /  1030.0hPa SSW 1.3mph /  2.1km/h 6.5mph /  10.5km/h 98% 0in /  0.0mm
15:11 36.3 °F /  2.4 °C 36 °F /  2.2 °C 30.4in /  1029.0hPa SSW 3.6mph /  5.8km/h 6.5mph /  10.5km/h 98% 0in /  0.0mm
15:16 36.3 °F /  2.4 °C 36 °F /  2.2 °C 30.4in /  1029.0hPa SSW 2.9mph /  4.7km/h 4.7mph /  7.6km/h 98% 0in /  0.0mm
15:21 36.3 °F /  2.4 °C 36 °F /  2.2 °C 30.4in /  1029.0hPa SSW 3.6mph /  5.8km/h 4.3mph /  6.9km/h 98% 0in /  0.0mm
15:27 36.3 °F /  2.4 °C 36 °F /  2.2 °C 30.4in /  1029.0hPa SW 4.3mph /  6.9km/h 4.5mph /  7.2km/h 98% 0in /  0.0mm
15:31 36.1 °F /  2.3 °C 35.8 °F /  2.1 °C 30.4in /  1029.0hPa South 2.7mph /  4.3km/h 4.5mph /  7.2km/h 98% 0in /  0.0mm
15:41 36.1 °F /  2.3 °C 35.8 °F /  2.1 °C 30.4in /  1030.0hPa SSW 3.8mph /  6.1km/h 5.6mph /  9.0km/h 98% 0in /  0.0mm
15:47 36.3 °F /  2.4 °C 36 °F /  2.2 °C 30.4in /  1030.0hPa SSW 3.8mph /  6.1km/h 5.6mph /  9.0km/h 98% 0in /  0.0mm
15:52 36.3 °F /  2.4 °C 36 °F /  2.2 °C 30.4in /  1029.0hPa SW 4.3mph /  6.9km/h 5.8mph /  9.3km/h 98% 0in /  0.0mm
15:56 36.3 °F /  2.4 °C 36 °F /  2.2 °C 30.4in /  1029.0hPa SW 3.8mph /  6.1km/h 5.8mph /  9.3km/h 98% 0in /  0.0mm
16:07 36.1 °F /  2.3 °C 35.8 °F /  2.1 °C 30.4in /  1030.0hPa SW 3.6mph /  5.8km/h 5.6mph /  9.0km/h 98% 0in /  0.0mm
16:12 36.1 °F /  2.3 °C 35.8 °F /  2.1 °C 30.4in /  1030.0hPa WSW 3.8mph /  6.1km/h 5.6mph /  9.0km/h 98% 0in /  0.0mm
16:17 36.1 °F /  2.3 °C 35.8 °F /  2.1 °C 30.4in /  1030.0hPa SW 3.4mph /  5.5km/h 5.4mph /  8.7km/h 98% 0in /  0.0mm
16:22 36.1 °F /  2.3 °C 35.8 °F /  2.1 °C 30.4in /  1029.0hPa SSW 2.7mph /  4.3km/h 5.6mph /  9.0km/h 98% 0in /  0.0mm
16:27 36.3 °F /  2.4 °C 36 °F /  2.2 °C 30.4in /  1029.0hPa SSW 5.6mph /  9.0km/h 5.6mph /  9.0km/h 98% 0in /  0.0mm
16:31 36.3 °F /  2.4 °C 36 °F /  2.2 °C 30.4in /  1029.0hPa SW 3.4mph /  5.5km/h 5.6mph /  9.0km/h 98% 0in /  0.0mm
16:37 36.3 °F /  2.4 °C 36 °F /  2.2 °C 30.4in /  1029.0hPa SW 3.1mph /  5.0km/h 5.6mph /  9.0km/h 98% 0in /  0.0mm
16:42 36.3 °F /  2.4 °C 36 °F /  2.2 °C 30.4in /  1029.0hPa SSW 3.1mph /  5.0km/h 4.5mph /  7.2km/h 98% 0in /  0.0mm
16:47 36.3 °F /  2.4 °C 36 °F /  2.2 °C 30.4in /  1029.0hPa Calm   4.5mph /  7.2km/h 98% 0in /  0.0mm
16:52 36.3 °F /  2.4 °C 36 °F /  2.2 °C 30.4in /  1029.0hPa SW 2mph /  3.2km/h 4.5mph /  7.2km/h 98% 0in /  0.0mm
16:57 36.3 °F /  2.4 °C 36 °F /  2.2 °C 30.4in /  1029.0hPa South 3.1mph /  5.0km/h 3.8mph /  6.1km/h 98% 0in /  0.0mm
17:02 36.3 °F /  2.4 °C 36 °F /  2.2 °C 30.4in /  1029.0hPa SSW 2mph /  3.2km/h 3.6mph /  5.8km/h 98% 0in /  0.0mm
17:07 36.3 °F /  2.4 °C 36 °F /  2.2 °C 30.4in /  1030.0hPa SSW 3.4mph /  5.5km/h 4.3mph /  6.9km/h 98% 0in /  0.0mm
17:12 36.3 °F /  2.4 °C 36 °F /  2.2 °C 30.4in /  1030.0hPa Calm   4.3mph /  6.9km/h 98% 0in /  0.0mm
17:17 36.3 °F /  2.4 °C 36 °F /  2.2 °C 30.4in /  1030.0hPa SSW 2.7mph /  4.3km/h 3.1mph /  5.0km/h 98% 0in /  0.0mm
17:22 36.3 °F /  2.4 °C 36 °F /  2.2 °C 30.4in /  1030.0hPa Calm   3.4mph /  5.5km/h 98% 0in /  0.0mm
17:27 36.3 °F /  2.4 °C 36 °F /  2.2 °C 30.4in /  1030.0hPa Calm   3.4mph /  5.5km/h 98% 0in /  0.0mm
17:32 36.3 °F /  2.4 °C 36 °F /  2.2 °C 30.4in /  1030.0hPa Calm   2.9mph /  4.7km/h 98% 0in /  0.0mm
17:37 36.3 °F /  2.4 °C 36 °F /  2.2 °C 30.4in /  1030.0hPa SSW 3.6mph /  5.8km/h 3.6mph /  5.8km/h 98% 0in /  0.0mm
17:42 36.3 °F /  2.4 °C 36 °F /  2.2 °C 30.4in /  1030.0hPa WSW 2mph /  3.2km/h 3.6mph /  5.8km/h 98% 0in /  0.0mm
17:47 36.3 °F /  2.4 °C 36 °F /  2.2 °C 30.4in /  1030.0hPa Calm   3.1mph /  5.0km/h 98% 0in /  0.0mm
17:52 36.1 °F /  2.3 °C 35.8 °F /  2.1 °C 30.4in /  1030.0hPa Calm   3.1mph /  5.0km/h 98% 0in /  0.0mm
17:57 36.1 °F /  2.3 °C 35.8 °F /  2.1 °C 30.4in /  1030.0hPa Calm   2.2mph /  3.5km/h 98% 0in /  0.0mm
18:02 36.1 °F /  2.3 °C 35.8 °F /  2.1 °C 30.4in /  1030.0hPa SSW 2mph /  3.2km/h 2.2mph /  3.5km/h 98% 0in /  0.0mm
18:07 36.1 °F /  2.3 °C 35.8 °F /  2.1 °C 30.4in /  1030.0hPa Calm   2.2mph /  3.5km/h 98% 0in /  0.0mm
18:12 36.1 °F /  2.3 °C 35.8 °F /  2.1 °C 30.4in /  1030.0hPa Calm     98% 0in /  0.0mm
18:17 36.1 °F /  2.3 °C 35.8 °F /  2.1 °C 30.4in /  1030.0hPa Calm     98% 0in /  0.0mm
18:22 36.1 °F /  2.3 °C 35.8 °F /  2.1 °C 30.4in /  1030.0hPa Calm     98% 0in /  0.0mm
18:27 36.1 °F /  2.3 °C 35.8 °F /  2.1 °C 30.4in /  1030.0hPa Calm   2.2mph /  3.5km/h 98% 0in /  0.0mm
18:32 36.1 °F /  2.3 °C 35.8 °F /  2.1 °C 30.4in /  1030.0hPa Calm   2.2mph /  3.5km/h 98% 0in /  0.0mm
18:37 36.3 °F /  2.4 °C 36 °F /  2.2 °C 30.4in /  1030.0hPa Calm     98% 0in /  0.0mm
18:42 36.3 °F /  2.4 °C 36 °F /  2.2 °C 30.4in /  1030.0hPa Calm     98% 0in /  0.0mm
18:47 36.3 °F /  2.4 °C 36 °F /  2.2 °C 30.4in /  1030.0hPa Calm     98% 0in /  0.0mm
18:52 36.1 °F /  2.3 °C 35.8 °F /  2.1 °C 30.4in /  1030.0hPa Calm     98% 0in /  0.0mm
18:57 36.1 °F /  2.3 °C 35.8 °F /  2.1 °C 30.4in /  1030.0hPa Calm     98% 0in /  0.0mm
19:02 36.1 °F /  2.3 °C 35.8 °F /  2.1 °C 30.4in /  1030.0hPa Calm     98% 0in /  0.0mm
19:08 32 °F /  0.0 °C 35.8 °F /  2.1 °C 0in /  0.0hPa Calm     0% 0in /  0.0mm
19:13 36.1 °F /  2.3 °C 35.8 °F /  2.1 °C 30.4in /  1030.0hPa Calm     98% 0in /  0.0mm
19:18 36.1 °F /  2.3 °C 35.8 °F /  2.1 °C 30.4in /  1030.0hPa West 1.1mph /  1.8km/h 1.1mph /  1.8km/h 98% 0in /  0.0mm
19:23 36.1 °F /  2.3 °C 35.8 °F /  2.1 °C 30.4in /  1030.0hPa Calm   1.1mph /  1.8km/h 98% 0in /  0.0mm
19:28 36.3 °F /  2.4 °C 36 °F /  2.2 °C 30.4in /  1030.0hPa Calm     98% 0in /  0.0mm
19:33 36.3 °F /  2.4 °C 36 °F /  2.2 °C 30.4in /  1030.0hPa Calm     98% 0in /  0.0mm
19:38 36.7 °F /  2.6 °C 36.1 °F /  2.3 °C 30.4in /  1030.0hPa Calm     98% 0in /  0.0mm
19:43 36.7 °F /  2.6 °C 36.1 °F /  2.3 °C 30.4in /  1030.0hPa Calm     98% 0in /  0.0mm
19:48 36.7 °F /  2.6 °C 36.1 °F /  2.3 °C 30.4in /  1030.0hPa Calm     98% 0in /  0.0mm
19:53 36.9 °F /  2.7 °C 36.3 °F /  2.4 °C 30.4in /  1030.0hPa Calm     98% 0in /  0.0mm
19:58 36.9 °F /  2.7 °C 36.3 °F /  2.4 °C 30.4in /  1030.0hPa Calm     98% 0in /  0.0mm
20:03 36.9 °F /  2.7 °C 36.3 °F /  2.4 °C 30.4in /  1030.0hPa Calm     98% 0in /  0.0mm
20:08 36.9 °F /  2.7 °C 36.3 °F /  2.4 °C 30.4in /  1030.0hPa Calm     98% 0in /  0.0mm
20:13 36.9 °F /  2.7 °C 36.3 °F /  2.4 °C 30.4in /  1030.0hPa Calm     98% 0in /  0.0mm
20:18 36.9 °F /  2.7 °C 36.3 °F /  2.4 °C 30.4in /  1030.0hPa West 2.9mph /  4.7km/h 3.4mph /  5.5km/h 98% 0in /  0.0mm
20:23 36.9 °F /  2.7 °C 36.3 °F /  2.4 °C 30.4in /  1030.0hPa Calm   3.4mph /  5.5km/h 98% 0in /  0.0mm
20:28 36.9 °F /  2.7 °C 36.3 °F /  2.4 °C 30.4in /  1030.0hPa Calm   3.4mph /  5.5km/h 98% 0in /  0.0mm
20:33 36.9 °F /  2.7 °C 36.3 °F /  2.4 °C 30.4in /  1030.0hPa Calm     98% 0in /  0.0mm
20:38 36.9 °F /  2.7 °C 36.3 °F /  2.4 °C 30.4in /  1030.0hPa Calm   0.9mph /  1.4km/h 98% 0in /  0.0mm
20:43 36.9 °F /  2.7 °C 36.3 °F /  2.4 °C 30.4in /  1030.0hPa Calm   0.9mph /  1.4km/h 98% 0in /  0.0mm
20:48 36.9 °F /  2.7 °C 36.3 °F /  2.4 °C 30.4in /  1030.0hPa Calm     98% 0in /  0.0mm
20:53 36.9 °F /  2.7 °C 36.3 °F /  2.4 °C 30.4in /  1030.0hPa Calm     98% 0in /  0.0mm
20:58 36.9 °F /  2.7 °C 36.3 °F /  2.4 °C 30.4in /  1030.0hPa Calm     98% 0in /  0.0mm
21:03 36.9 °F /  2.7 °C 36.3 °F /  2.4 °C 30.4in /  1030.0hPa Calm     98% 0in /  0.0mm
21:08 37 °F /  2.8 °C 36.7 °F /  2.6 °C 30.4in /  1030.0hPa Calm     98% 0in /  0.0mm
21:13 37.2 °F /  2.9 °C 36.9 °F /  2.7 °C 30.4in /  1030.0hPa Calm     98% 0in /  0.0mm
21:18 37.2 °F /  2.9 °C 36.9 °F /  2.7 °C 30.4in /  1030.0hPa Calm     98% 0in /  0.0mm
21:23 37.2 °F /  2.9 °C 36.9 °F /  2.7 °C 30.4in /  1030.0hPa Calm     98% 0in /  0.0mm
21:28 37.2 °F /  2.9 °C 36.9 °F /  2.7 °C 30.4in /  1030.0hPa Calm     98% 0in /  0.0mm
21:33 37.2 °F /  2.9 °C 36.9 °F /  2.7 °C 30.4in /  1030.0hPa Calm     98% 0in /  0.0mm
21:38 37.2 °F /  2.9 °C 36.9 °F /  2.7 °C 30.4in /  1030.0hPa Calm     98% 0in /  0.0mm
21:43 37.6 °F /  3.1 °C 37 °F /  2.8 °C 30.4in /  1030.0hPa Calm     98% 0in /  0.0mm
21:48 37.6 °F /  3.1 °C 37 °F /  2.8 °C 30.4in /  1030.0hPa Calm     98% 0in /  0.0mm
21:53 37.6 °F /  3.1 °C 37 °F /  2.8 °C 30.4in /  1030.0hPa Calm     98% 0in /  0.0mm
21:58 37.6 °F /  3.1 °C 37 °F /  2.8 °C 30.4in /  1030.0hPa Calm     98% 0in /  0.0mm
22:03 37.8 °F /  3.2 °C 37.2 °F /  2.9 °C 30.4in /  1030.0hPa Calm     98% 0in /  0.0mm
22:08 37.8 °F /  3.2 °C 37.2 °F /  2.9 °C 30.4in /  1030.0hPa Calm     98% 0in /  0.0mm
22:13 37.8 °F /  3.2 °C 37.2 °F /  2.9 °C 30.4in /  1030.0hPa Calm     98% 0in /  0.0mm
22:18 37.9 °F /  3.3 °C 37.6 °F /  3.1 °C 30.4in /  1030.0hPa Calm     98% 0in /  0.0mm
22:23 37.9 °F /  3.3 °C 37.6 °F /  3.1 °C 30.4in /  1030.0hPa Calm     98% 0in /  0.0mm
22:28 37.9 °F /  3.3 °C 37.6 °F /  3.1 °C 30.4in /  1030.0hPa Calm     98% 0in /  0.0mm
22:33 38.5 °F /  3.6 °C 37.8 °F /  3.2 °C 30.4in /  1030.0hPa Calm     98% 0in /  0.0mm
22:38 38.5 °F /  3.6 °C 37.8 °F /  3.2 °C 30.4in /  1030.0hPa Calm     98% 0in /  0.0mm
22:43 38.5 °F /  3.6 °C 37.8 °F /  3.2 °C 30.4in /  1030.0hPa Calm     98% 0in /  0.0mm
22:48 38.5 °F /  3.6 °C 37.8 °F /  3.2 °C 30.4in /  1030.0hPa Calm     98% 0in /  0.0mm
22:53 38.5 °F /  3.6 °C 37.8 °F /  3.2 °C 30.4in /  1030.0hPa Calm     98% 0in /  0.0mm
22:58 38.5 °F /  3.6 °C 37.8 °F /  3.2 °C 30.4in /  1030.0hPa Calm     98% 0in /  0.0mm
23:03 38.5 °F /  3.6 °C 37.8 °F /  3.2 °C 30.4in /  1030.0hPa Calm     98% 0in /  0.0mm
23:04 38.5 °F /  3.6 °C 37.8 °F /  3.2 °C 30.4in /  1030.0hPa Calm     98% 0in /  0.0mm
23:09 38.5 °F /  3.6 °C 37.8 °F /  3.2 °C 30.4in /  1030.0hPa Calm     98% 0in /  0.0mm
23:14 38.5 °F /  3.6 °C 37.8 °F /  3.2 °C 30.4in /  1030.0hPa Calm     98% 0in /  0.0mm
23:19 38.5 °F /  3.6 °C 37.9 °F /  3.3 °C 30.4in /  1030.0hPa Calm     98% 0in /  0.0mm
23:24 38.5 °F /  3.6 °C 37.9 °F /  3.3 °C 30.4in /  1030.0hPa Calm     98% 0in /  0.0mm
23:29 38.5 °F /  3.6 °C 37.9 °F /  3.3 °C 30.4in /  1030.0hPa Calm     98% 0in /  0.0mm
23:34 38.5 °F /  3.6 °C 37.9 °F /  3.3 °C 30.4in /  1030.0hPa Calm     98% 0in /  0.0mm
23:39 38.5 °F /  3.6 °C 37.9 °F /  3.3 °C 30.4in /  1030.0hPa Calm     98% 0in /  0.0mm
23:44 38.7 °F /  3.7 °C 38.1 °F /  3.4 °C 30.4in /  1030.0hPa Calm   3.4mph /  5.5km/h 98% 0in /  0.0mm
23:49 38.8 °F /  3.8 °C 38.5 °F /  3.6 °C 30.4in /  1030.0hPa Calm   3.4mph /  5.5km/h 98% 0in /  0.0mm
23:54 39 °F /  3.9 °C 38.5 °F /  3.6 °C 30.4in /  1030.0hPa Calm     98% 0in /  0.0mm
23:59 39.2 °F /  4.0 °C 38.7 °F /  3.7 °C 30.4in /  1030.0hPa NNE 1.1mph /  1.8km/h 2.5mph /  4.0km/h 98% 0in /  0.0mm
Données Historique de Météo Turbie

Mise a jour : 24/05/2018 10:06:21
Généré par Cumulus 1.9.4 (1099)